sensor_id;sensor_type;location;lat;lon;timestamp;P1;durP1;ratioP1;P2;durP2;ratioP2
56319;SDS011;42226;42.382;23.748;2023-08-07T00:01:05;3.00;;;2.80;;
56319;SDS011;42226;42.382;23.748;2023-08-07T00:03:32;2.70;;;2.60;;
56319;SDS011;42226;42.382;23.748;2023-08-07T00:06:01;2.97;;;2.80;;
56319;SDS011;42226;42.382;23.748;2023-08-07T00:08:29;3.30;;;3.10;;
56319;SDS011;42226;42.382;23.748;2023-08-07T00:11:07;2.97;;;2.70;;
56319;SDS011;42226;42.382;23.748;2023-08-07T00:13:35;2.92;;;2.72;;
56319;SDS011;42226;42.382;23.748;2023-08-07T00:16:06;2.60;;;2.50;;
56319;SDS011;42226;42.382;23.748;2023-08-07T00:18:32;3.10;;;2.90;;
56319;SDS011;42226;42.382;23.748;2023-08-07T00:21:00;3.10;;;2.90;;
56319;SDS011;42226;42.382;23.748;2023-08-07T00:23:28;3.10;;;2.90;;
56319;SDS011;42226;42.382;23.748;2023-08-07T00:25:56;2.90;;;2.80;;
56319;SDS011;42226;42.382;23.748;2023-08-07T00:28:24;3.00;;;2.80;;
56319;SDS011;42226;42.382;23.748;2023-08-07T00:30:52;2.85;;;2.75;;
56319;SDS011;42226;42.382;23.748;2023-08-07T00:33:20;3.20;;;3.10;;
56319;SDS011;42226;42.382;23.748;2023-08-07T00:35:48;3.30;;;3.10;;
56319;SDS011;42226;42.382;23.748;2023-08-07T00:38:17;3.17;;;2.97;;
56319;SDS011;42226;42.382;23.748;2023-08-07T00:40:44;3.05;;;2.85;;
56319;SDS011;42226;42.382;23.748;2023-08-07T00:43:12;3.00;;;2.80;;
56319;SDS011;42226;42.382;23.748;2023-08-07T00:45:42;3.30;;;3.00;;
56319;SDS011;42226;42.382;23.748;2023-08-07T00:48:13;3.08;;;2.88;;
56319;SDS011;42226;42.382;23.748;2023-08-07T00:50:41;3.30;;;3.10;;
56319;SDS011;42226;42.382;23.748;2023-08-07T00:53:10;3.20;;;3.00;;
56319;SDS011;42226;42.382;23.748;2023-08-07T00:55:38;3.40;;;3.20;;
56319;SDS011;42226;42.382;23.748;2023-08-07T00:58:06;3.65;;;3.45;;
56319;SDS011;42226;42.382;23.748;2023-08-07T01:00:34;3.25;;;3.05;;
56319;SDS011;42226;42.382;23.748;2023-08-07T01:03:01;3.38;;;3.17;;
56319;SDS011;42226;42.382;23.748;2023-08-07T01:05:35;3.40;;;3.20;;
56319;SDS011;42226;42.382;23.748;2023-08-07T01:08:02;3.30;;;3.10;;
56319;SDS011;42226;42.382;23.748;2023-08-07T01:13:54;3.55;;;3.25;;
56319;SDS011;42226;42.382;23.748;2023-08-07T01:16:42;3.42;;;3.22;;
56319;SDS011;42226;42.382;23.748;2023-08-07T01:19:30;3.35;;;3.15;;
56319;SDS011;42226;42.382;23.748;2023-08-07T01:24:38;3.30;;;3.10;;
56319;SDS011;42226;42.382;23.748;2023-08-07T01:27:11;3.13;;;2.95;;
56319;SDS011;42226;42.382;23.748;2023-08-07T01:32:43;3.42;;;3.22;;
56319;SDS011;42226;42.382;23.748;2023-08-07T01:35:58;3.30;;;3.10;;
56319;SDS011;42226;42.382;23.748;2023-08-07T01:38:28;3.28;;;3.17;;
56319;SDS011;42226;42.382;23.748;2023-08-07T01:40:56;3.55;;;3.28;;
56319;SDS011;42226;42.382;23.748;2023-08-07T01:43:25;3.38;;;3.17;;
56319;SDS011;42226;42.382;23.748;2023-08-07T01:45:52;3.40;;;3.20;;
56319;SDS011;42226;42.382;23.748;2023-08-07T01:48:20;3.58;;;3.38;;
56319;SDS011;42226;42.382;23.748;2023-08-07T01:50:46;3.60;;;3.40;;
56319;SDS011;42226;42.382;23.748;2023-08-07T01:53:14;3.28;;;3.08;;
56319;SDS011;42226;42.382;23.748;2023-08-07T01:55:42;3.40;;;3.20;;
56319;SDS011;42226;42.382;23.748;2023-08-07T01:58:09;3.47;;;3.28;;
56319;SDS011;42226;42.382;23.748;2023-08-07T02:00:38;3.30;;;3.10;;
56319;SDS011;42226;42.382;23.748;2023-08-07T02:03:06;4.00;;;3.60;;
56319;SDS011;42226;42.382;23.748;2023-08-07T02:05:34;4.03;;;3.50;;
56319;SDS011;42226;42.382;23.748;2023-08-07T02:08:00;3.70;;;3.50;;
56319;SDS011;42226;42.382;23.748;2023-08-07T02:10:29;4.15;;;3.85;;
56319;SDS011;42226;42.382;23.748;2023-08-07T02:12:57;3.60;;;3.38;;
56319;SDS011;42226;42.382;23.748;2023-08-07T02:15:25;3.83;;;3.63;;
56319;SDS011;42226;42.382;23.748;2023-08-07T02:17:52;3.53;;;3.33;;
56319;SDS011;42226;42.382;23.748;2023-08-07T02:20:20;3.80;;;3.60;;
56319;SDS011;42226;42.382;23.748;2023-08-07T02:22:48;3.90;;;3.70;;
56319;SDS011;42226;42.382;23.748;2023-08-07T02:25:16;3.67;;;3.47;;
56319;SDS011;42226;42.382;23.748;2023-08-07T02:27:43;3.80;;;3.60;;
56319;SDS011;42226;42.382;23.748;2023-08-07T02:30:11;3.55;;;3.35;;
56319;SDS011;42226;42.382;23.748;2023-08-07T02:32:39;4.22;;;4.00;;
56319;SDS011;42226;42.382;23.748;2023-08-07T02:35:08;3.97;;;3.78;;
56319;SDS011;42226;42.382;23.748;2023-08-07T02:37:37;4.22;;;3.92;;
56319;SDS011;42226;42.382;23.748;2023-08-07T02:40:05;3.63;;;3.42;;
56319;SDS011;42226;42.382;23.748;2023-08-07T02:42:33;4.05;;;3.75;;
56319;SDS011;42226;42.382;23.748;2023-08-07T02:45:00;3.97;;;3.78;;
56319;SDS011;42226;42.382;23.748;2023-08-07T02:47:27;4.03;;;3.72;;
56319;SDS011;42226;42.382;23.748;2023-08-07T02:49:55;4.22;;;4.03;;
56319;SDS011;42226;42.382;23.748;2023-08-07T02:52:21;3.80;;;3.60;;
56319;SDS011;42226;42.382;23.748;2023-08-07T02:54:49;4.15;;;3.95;;
56319;SDS011;42226;42.382;23.748;2023-08-07T02:57:16;4.30;;;4.10;;
56319;SDS011;42226;42.382;23.748;2023-08-07T02:59:44;4.47;;;4.22;;
56319;SDS011;42226;42.382;23.748;2023-08-07T03:02:11;4.78;;;4.47;;
56319;SDS011;42226;42.382;23.748;2023-08-07T03:04:37;4.60;;;4.40;;
56319;SDS011;42226;42.382;23.748;2023-08-07T03:07:04;4.85;;;4.55;;
56319;SDS011;42226;42.382;23.748;2023-08-07T03:09:31;4.43;;;4.13;;
56319;SDS011;42226;42.382;23.748;2023-08-07T03:11:58;4.78;;;4.47;;
56319;SDS011;42226;42.382;23.748;2023-08-07T03:14:30;4.72;;;4.43;;
56319;SDS011;42226;42.382;23.748;2023-08-07T03:16:59;4.78;;;4.50;;
56319;SDS011;42226;42.382;23.748;2023-08-07T03:19:26;4.20;;;4.00;;
56319;SDS011;42226;42.382;23.748;2023-08-07T03:21:54;5.10;;;4.80;;
56319;SDS011;42226;42.382;23.748;2023-08-07T03:24:21;4.60;;;4.30;;
56319;SDS011;42226;42.382;23.748;2023-08-07T03:26:48;4.55;;;4.25;;
56319;SDS011;42226;42.382;23.748;2023-08-07T03:29:31;4.55;;;4.25;;
56319;SDS011;42226;42.382;23.748;2023-08-07T03:31:59;4.20;;;4.00;;
56319;SDS011;42226;42.382;23.748;2023-08-07T03:34:26;4.72;;;4.43;;
56319;SDS011;42226;42.382;23.748;2023-08-07T03:36:53;4.22;;;4.03;;
56319;SDS011;42226;42.382;23.748;2023-08-07T03:39:21;4.25;;;3.95;;
56319;SDS011;42226;42.382;23.748;2023-08-07T03:41:49;4.40;;;4.20;;
56319;SDS011;42226;42.382;23.748;2023-08-07T03:44:16;4.68;;;4.30;;
56319;SDS011;42226;42.382;23.748;2023-08-07T03:46:43;4.68;;;4.38;;
56319;SDS011;42226;42.382;23.748;2023-08-07T03:49:10;4.55;;;4.15;;
56319;SDS011;42226;42.382;23.748;2023-08-07T03:51:37;4.35;;;4.15;;
56319;SDS011;42226;42.382;23.748;2023-08-07T03:54:05;4.30;;;4.10;;
56319;SDS011;42226;42.382;23.748;2023-08-07T03:56:32;4.70;;;4.40;;
56319;SDS011;42226;42.382;23.748;2023-08-07T03:59:02;4.50;;;4.30;;
56319;SDS011;42226;42.382;23.748;2023-08-07T04:01:30;4.70;;;4.40;;
56319;SDS011;42226;42.382;23.748;2023-08-07T04:03:58;6.07;;;4.10;;
56319;SDS011;42226;42.382;23.748;2023-08-07T04:06:25;4.22;;;3.92;;
56319;SDS011;42226;42.382;23.748;2023-08-07T04:08:52;3.70;;;3.50;;
56319;SDS011;42226;42.382;23.748;2023-08-07T04:11:19;4.32;;;4.03;;
56319;SDS011;42226;42.382;23.748;2023-08-07T04:13:46;3.88;;;3.67;;
56319;SDS011;42226;42.382;23.748;2023-08-07T04:16:13;4.25;;;4.05;;
56319;SDS011;42226;42.382;23.748;2023-08-07T04:18:41;4.57;;;4.28;;
56319;SDS011;42226;42.382;23.748;2023-08-07T04:21:09;4.20;;;4.00;;
56319;SDS011;42226;42.382;23.748;2023-08-07T04:23:36;3.90;;;3.70;;
56319;SDS011;42226;42.382;23.748;2023-08-07T04:26:04;4.28;;;4.00;;
56319;SDS011;42226;42.382;23.748;2023-08-07T04:28:32;4.50;;;4.20;;
56319;SDS011;42226;42.382;23.748;2023-08-07T04:30:59;4.20;;;4.00;;
56319;SDS011;42226;42.382;23.748;2023-08-07T04:33:25;3.88;;;3.67;;
56319;SDS011;42226;42.382;23.748;2023-08-07T04:35:54;4.18;;;3.95;;
56319;SDS011;42226;42.382;23.748;2023-08-07T04:38:21;4.30;;;4.00;;
56319;SDS011;42226;42.382;23.748;2023-08-07T04:40:49;4.03;;;3.83;;
56319;SDS011;42226;42.382;23.748;2023-08-07T04:43:16;4.50;;;4.20;;
56319;SDS011;42226;42.382;23.748;2023-08-07T04:45:48;4.07;;;3.88;;
56319;SDS011;42226;42.382;23.748;2023-08-07T04:48:14;3.75;;;3.55;;
56319;SDS011;42226;42.382;23.748;2023-08-07T04:50:44;4.05;;;3.78;;
56319;SDS011;42226;42.382;23.748;2023-08-07T04:53:11;3.78;;;3.58;;
56319;SDS011;42226;42.382;23.748;2023-08-07T04:55:39;4.07;;;3.88;;
56319;SDS011;42226;42.382;23.748;2023-08-07T04:58:07;3.80;;;3.60;;
56319;SDS011;42226;42.382;23.748;2023-08-07T05:00:35;4.03;;;3.83;;
56319;SDS011;42226;42.382;23.748;2023-08-07T05:03:02;4.30;;;3.90;;
56319;SDS011;42226;42.382;23.748;2023-08-07T05:05:29;4.20;;;3.80;;
56319;SDS011;42226;42.382;23.748;2023-08-07T05:07:58;4.00;;;3.80;;
56319;SDS011;42226;42.382;23.748;2023-08-07T05:10:24;4.00;;;3.80;;
56319;SDS011;42226;42.382;23.748;2023-08-07T05:12:52;3.72;;;3.53;;
56319;SDS011;42226;42.382;23.748;2023-08-07T05:15:21;3.70;;;3.50;;
56319;SDS011;42226;42.382;23.748;2023-08-07T05:17:51;3.60;;;3.40;;
56319;SDS011;42226;42.382;23.748;2023-08-07T05:20:18;3.80;;;3.60;;
56319;SDS011;42226;42.382;23.748;2023-08-07T05:22:46;3.70;;;3.50;;
56319;SDS011;42226;42.382;23.748;2023-08-07T05:25:14;3.83;;;3.55;;
56319;SDS011;42226;42.382;23.748;2023-08-07T05:27:43;3.70;;;3.50;;
56319;SDS011;42226;42.382;23.748;2023-08-07T05:30:12;3.63;;;3.42;;
56319;SDS011;42226;42.382;23.748;2023-08-07T05:32:40;3.45;;;3.25;;
56319;SDS011;42226;42.382;23.748;2023-08-07T05:35:09;3.92;;;3.72;;
56319;SDS011;42226;42.382;23.748;2023-08-07T05:37:35;3.75;;;3.55;;
56319;SDS011;42226;42.382;23.748;2023-08-07T05:40:05;3.70;;;3.50;;
56319;SDS011;42226;42.382;23.748;2023-08-07T05:42:32;3.58;;;3.30;;
56319;SDS011;42226;42.382;23.748;2023-08-07T05:45:00;3.70;;;3.50;;
56319;SDS011;42226;42.382;23.748;2023-08-07T05:47:28;3.70;;;3.50;;
56319;SDS011;42226;42.382;23.748;2023-08-07T05:49:56;3.67;;;3.47;;
56319;SDS011;42226;42.382;23.748;2023-08-07T05:52:24;3.65;;;3.45;;
56319;SDS011;42226;42.382;23.748;2023-08-07T05:54:51;3.72;;;3.53;;
56319;SDS011;42226;42.382;23.748;2023-08-07T05:57:18;3.45;;;3.25;;
56319;SDS011;42226;42.382;23.748;2023-08-07T05:59:45;3.40;;;3.20;;
56319;SDS011;42226;42.382;23.748;2023-08-07T06:02:12;3.70;;;3.50;;
56319;SDS011;42226;42.382;23.748;2023-08-07T06:04:40;3.10;;;2.90;;
56319;SDS011;42226;42.382;23.748;2023-08-07T06:07:07;3.50;;;3.30;;
56319;SDS011;42226;42.382;23.748;2023-08-07T06:09:35;3.40;;;3.20;;
56319;SDS011;42226;42.382;23.748;2023-08-07T06:12:03;3.50;;;3.30;;
56319;SDS011;42226;42.382;23.748;2023-08-07T06:14:29;3.40;;;3.20;;
56319;SDS011;42226;42.382;23.748;2023-08-07T06:16:57;3.40;;;3.20;;
56319;SDS011;42226;42.382;23.748;2023-08-07T06:19:26;3.45;;;3.25;;
56319;SDS011;42226;42.382;23.748;2023-08-07T06:21:54;3.67;;;3.47;;
56319;SDS011;42226;42.382;23.748;2023-08-07T06:24:22;3.60;;;3.40;;
56319;SDS011;42226;42.382;23.748;2023-08-07T06:26:51;3.40;;;3.20;;
56319;SDS011;42226;42.382;23.748;2023-08-07T06:29:18;3.30;;;3.10;;
56319;SDS011;42226;42.382;23.748;2023-08-07T06:43:29;3.38;;;3.17;;
56319;SDS011;42226;42.382;23.748;2023-08-07T06:45:56;3.60;;;3.40;;
56319;SDS011;42226;42.382;23.748;2023-08-07T06:48:25;3.55;;;3.35;;
56319;SDS011;42226;42.382;23.748;2023-08-07T06:51:07;3.50;;;3.30;;
56319;SDS011;42226;42.382;23.748;2023-08-07T06:53:33;3.40;;;3.20;;
56319;SDS011;42226;42.382;23.748;2023-08-07T06:56:01;3.60;;;3.40;;
56319;SDS011;42226;42.382;23.748;2023-08-07T06:58:29;3.38;;;3.17;;
56319;SDS011;42226;42.382;23.748;2023-08-07T07:07:38;3.60;;;3.40;;
56319;SDS011;42226;42.382;23.748;2023-08-07T07:13:46;3.50;;;3.30;;
56319;SDS011;42226;42.382;23.748;2023-08-07T07:23:37;3.35;;;3.15;;
56319;SDS011;42226;42.382;23.748;2023-08-07T07:26:08;3.38;;;3.15;;
56319;SDS011;42226;42.382;23.748;2023-08-07T07:28:36;3.30;;;3.10;;
56319;SDS011;42226;42.382;23.748;2023-08-07T07:31:09;3.30;;;3.10;;
56319;SDS011;42226;42.382;23.748;2023-08-07T07:52:28;3.20;;;2.90;;
56319;SDS011;42226;42.382;23.748;2023-08-07T07:57:45;3.47;;;3.17;;
56319;SDS011;42226;42.382;23.748;2023-08-07T08:00:13;3.20;;;3.00;;
56319;SDS011;42226;42.382;23.748;2023-08-07T08:02:44;3.67;;;3.47;;
56319;SDS011;42226;42.382;23.748;2023-08-07T08:08:41;3.13;;;2.92;;
56319;SDS011;42226;42.382;23.748;2023-08-07T08:11:10;3.20;;;3.00;;
56319;SDS011;42226;42.382;23.748;2023-08-07T08:16:47;3.10;;;2.90;;
56319;SDS011;42226;42.382;23.748;2023-08-07T08:19:15;3.00;;;2.80;;
56319;SDS011;42226;42.382;23.748;2023-08-07T08:21:44;2.72;;;2.53;;
56319;SDS011;42226;42.382;23.748;2023-08-07T08:24:12;2.95;;;2.75;;
56319;SDS011;42226;42.382;23.748;2023-08-07T08:26:40;2.58;;;2.47;;
56319;SDS011;42226;42.382;23.748;2023-08-07T08:29:08;2.83;;;2.72;;
56319;SDS011;42226;42.382;23.748;2023-08-07T08:31:35;2.50;;;2.40;;
56319;SDS011;42226;42.382;23.748;2023-08-07T08:34:02;3.47;;;2.78;;
56319;SDS011;42226;42.382;23.748;2023-08-07T08:36:30;2.70;;;2.60;;
56319;SDS011;42226;42.382;23.748;2023-08-07T08:38:56;3.10;;;2.90;;
56319;SDS011;42226;42.382;23.748;2023-08-07T08:41:24;3.00;;;2.80;;
56319;SDS011;42226;42.382;23.748;2023-08-07T08:43:52;2.88;;;2.78;;
56319;SDS011;42226;42.382;23.748;2023-08-07T08:46:21;2.47;;;2.38;;
56319;SDS011;42226;42.382;23.748;2023-08-07T08:48:55;2.65;;;2.45;;
56319;SDS011;42226;42.382;23.748;2023-08-07T08:51:27;2.72;;;2.58;;
56319;SDS011;42226;42.382;23.748;2023-08-07T08:53:54;3.17;;;2.70;;
56319;SDS011;42226;42.382;23.748;2023-08-07T09:00:04;2.90;;;2.70;;
56319;SDS011;42226;42.382;23.748;2023-08-07T09:02:42;2.85;;;2.75;;
56319;SDS011;42226;42.382;23.748;2023-08-07T09:05:11;2.60;;;2.50;;
56319;SDS011;42226;42.382;23.748;2023-08-07T09:07:42;2.90;;;2.70;;
56319;SDS011;42226;42.382;23.748;2023-08-07T09:10:13;2.70;;;2.60;;
56319;SDS011;42226;42.382;23.748;2023-08-07T09:12:49;3.40;;;2.50;;
56319;SDS011;42226;42.382;23.748;2023-08-07T09:15:27;2.70;;;2.50;;
56319;SDS011;42226;42.382;23.748;2023-08-07T09:17:59;2.78;;;2.30;;
56319;SDS011;42226;42.382;23.748;2023-08-07T09:20:27;3.00;;;2.65;;
56319;SDS011;42226;42.382;23.748;2023-08-07T10:08:10;3.40;;;2.70;;
56319;SDS011;42226;42.382;23.748;2023-08-07T14:33:52;3.10;;;2.80;;
56319;SDS011;42226;42.382;23.748;2023-08-07T14:36:21;3.88;;;2.90;;
56319;SDS011;42226;42.382;23.748;2023-08-07T14:38:48;3.28;;;3.00;;
56319;SDS011;42226;42.382;23.748;2023-08-07T14:58:07;3.20;;;2.90;;
56319;SDS011;42226;42.382;23.748;2023-08-07T15:00:35;2.90;;;2.70;;
56319;SDS011;42226;42.382;23.748;2023-08-07T15:03:04;3.10;;;2.80;;
56319;SDS011;42226;42.382;23.748;2023-08-07T15:05:31;3.13;;;2.80;;
56319;SDS011;42226;42.382;23.748;2023-08-07T15:08:00;3.08;;;2.78;;
56319;SDS011;42226;42.382;23.748;2023-08-07T15:10:27;3.00;;;2.80;;
56319;SDS011;42226;42.382;23.748;2023-08-07T15:13:31;3.33;;;3.10;;
56319;SDS011;42226;42.382;23.748;2023-08-07T15:15:59;3.03;;;2.83;;
56319;SDS011;42226;42.382;23.748;2023-08-07T15:18:25;3.30;;;2.90;;
56319;SDS011;42226;42.382;23.748;2023-08-07T15:20:53;3.53;;;3.22;;
56319;SDS011;42226;42.382;23.748;2023-08-07T15:29:25;3.10;;;2.90;;
56319;SDS011;42226;42.382;23.748;2023-08-07T15:31:53;3.30;;;3.00;;
56319;SDS011;42226;42.382;23.748;2023-08-07T15:34:20;4.43;;;3.00;;
56319;SDS011;42226;42.382;23.748;2023-08-07T15:36:46;3.10;;;2.90;;
56319;SDS011;42226;42.382;23.748;2023-08-07T15:39:16;3.97;;;3.00;;
56319;SDS011;42226;42.382;23.748;2023-08-07T15:54:44;3.03;;;2.72;;
56319;SDS011;42226;42.382;23.748;2023-08-07T16:03:53;3.33;;;3.13;;
56319;SDS011;42226;42.382;23.748;2023-08-07T16:06:22;3.08;;;2.80;;
56319;SDS011;42226;42.382;23.748;2023-08-07T16:30:37;3.10;;;2.90;;
56319;SDS011;42226;42.382;23.748;2023-08-07T16:35:55;4.03;;;3.45;;
56319;SDS011;42226;42.382;23.748;2023-08-07T16:50:41;11.85;;;3.70;;
56319;SDS011;42226;42.382;23.748;2023-08-07T16:53:08;3.38;;;3.17;;
56319;SDS011;42226;42.382;23.748;2023-08-07T17:21:21;3.42;;;2.72;;
56319;SDS011;42226;42.382;23.748;2023-08-07T17:23:48;2.75;;;2.65;;
56319;SDS011;42226;42.382;23.748;2023-08-07T17:32:49;3.00;;;2.67;;
56319;SDS011;42226;42.382;23.748;2023-08-07T17:35:16;3.25;;;2.95;;
56319;SDS011;42226;42.382;23.748;2023-08-07T17:37:43;3.10;;;2.90;;
56319;SDS011;42226;42.382;23.748;2023-08-07T17:40:11;2.85;;;2.65;;
56319;SDS011;42226;42.382;23.748;2023-08-07T17:42:39;3.15;;;2.95;;
56319;SDS011;42226;42.382;23.748;2023-08-07T17:45:07;3.22;;;2.97;;
56319;SDS011;42226;42.382;23.748;2023-08-07T17:47:34;3.15;;;2.95;;
56319;SDS011;42226;42.382;23.748;2023-08-07T17:50:02;3.15;;;2.92;;
56319;SDS011;42226;42.382;23.748;2023-08-07T17:52:30;3.00;;;2.80;;
56319;SDS011;42226;42.382;23.748;2023-08-07T17:54:57;3.45;;;3.15;;
56319;SDS011;42226;42.382;23.748;2023-08-07T17:57:27;3.28;;;3.00;;
56319;SDS011;42226;42.382;23.748;2023-08-07T17:59:54;3.17;;;2.90;;
56319;SDS011;42226;42.382;23.748;2023-08-07T18:02:21;3.22;;;3.03;;
56319;SDS011;42226;42.382;23.748;2023-08-07T18:04:49;3.00;;;2.80;;
56319;SDS011;42226;42.382;23.748;2023-08-07T18:07:16;3.40;;;3.20;;
56319;SDS011;42226;42.382;23.748;2023-08-07T18:09:44;3.38;;;3.17;;
56319;SDS011;42226;42.382;23.748;2023-08-07T18:12:11;3.33;;;3.03;;
56319;SDS011;42226;42.382;23.748;2023-08-07T18:14:39;3.38;;;3.17;;
56319;SDS011;42226;42.382;23.748;2023-08-07T18:17:07;3.60;;;3.30;;
56319;SDS011;42226;42.382;23.748;2023-08-07T18:19:34;3.65;;;3.10;;
56319;SDS011;42226;42.382;23.748;2023-08-07T18:22:01;3.30;;;3.10;;
56319;SDS011;42226;42.382;23.748;2023-08-07T18:24:28;3.80;;;3.47;;
56319;SDS011;42226;42.382;23.748;2023-08-07T18:26:55;3.30;;;3.10;;
56319;SDS011;42226;42.382;23.748;2023-08-07T18:29:23;4.88;;;3.30;;
56319;SDS011;42226;42.382;23.748;2023-08-07T18:31:49;3.20;;;3.00;;
56319;SDS011;42226;42.382;23.748;2023-08-07T18:34:17;3.53;;;3.22;;
56319;SDS011;42226;42.382;23.748;2023-08-07T18:36:44;4.35;;;3.28;;
56319;SDS011;42226;42.382;23.748;2023-08-07T18:39:12;3.78;;;3.10;;
56319;SDS011;42226;42.382;23.748;2023-08-07T18:41:42;3.50;;;3.30;;
56319;SDS011;42226;42.382;23.748;2023-08-07T18:44:09;3.58;;;3.10;;
56319;SDS011;42226;42.382;23.748;2023-08-07T18:46:37;3.30;;;3.00;;
56319;SDS011;42226;42.382;23.748;2023-08-07T18:49:04;3.20;;;3.00;;
56319;SDS011;42226;42.382;23.748;2023-08-07T18:51:31;3.53;;;3.22;;
56319;SDS011;42226;42.382;23.748;2023-08-07T18:53:59;3.25;;;2.90;;
56319;SDS011;42226;42.382;23.748;2023-08-07T18:56:27;3.20;;;3.00;;
56319;SDS011;42226;42.382;23.748;2023-08-07T18:58:53;3.47;;;3.17;;
56319;SDS011;42226;42.382;23.748;2023-08-07T19:01:21;3.17;;;3.00;;
56319;SDS011;42226;42.382;23.748;2023-08-07T19:03:49;3.60;;;3.35;;
56319;SDS011;42226;42.382;23.748;2023-08-07T19:06:17;3.47;;;3.17;;
56319;SDS011;42226;42.382;23.748;2023-08-07T19:08:44;3.40;;;3.10;;
56319;SDS011;42226;42.382;23.748;2023-08-07T19:11:11;3.30;;;3.10;;
56319;SDS011;42226;42.382;23.748;2023-08-07T19:13:39;3.10;;;2.90;;
56319;SDS011;42226;42.382;23.748;2023-08-07T19:16:05;2.95;;;2.75;;
56319;SDS011;42226;42.382;23.748;2023-08-07T19:18:33;3.35;;;3.10;;
56319;SDS011;42226;42.382;23.748;2023-08-07T19:20:59;3.10;;;2.88;;
56319;SDS011;42226;42.382;23.748;2023-08-07T19:23:30;3.38;;;3.10;;
56319;SDS011;42226;42.382;23.748;2023-08-07T19:25:58;3.30;;;3.08;;
56319;SDS011;42226;42.382;23.748;2023-08-07T19:28:27;3.30;;;3.10;;
56319;SDS011;42226;42.382;23.748;2023-08-07T19:30:54;3.38;;;3.15;;
56319;SDS011;42226;42.382;23.748;2023-08-07T19:33:22;3.15;;;2.95;;
56319;SDS011;42226;42.382;23.748;2023-08-07T19:35:51;3.42;;;3.13;;
56319;SDS011;42226;42.382;23.748;2023-08-07T19:38:18;3.30;;;3.00;;
56319;SDS011;42226;42.382;23.748;2023-08-07T19:40:46;3.55;;;3.28;;
56319;SDS011;42226;42.382;23.748;2023-08-07T19:43:13;3.45;;;3.22;;
56319;SDS011;42226;42.382;23.748;2023-08-07T19:45:40;2.90;;;2.80;;
56319;SDS011;42226;42.382;23.748;2023-08-07T19:48:09;3.30;;;3.10;;
56319;SDS011;42226;42.382;23.748;2023-08-07T19:50:37;3.28;;;3.00;;
56319;SDS011;42226;42.382;23.748;2023-08-07T19:53:04;3.67;;;3.40;;
56319;SDS011;42226;42.382;23.748;2023-08-07T19:55:32;3.22;;;3.03;;
56319;SDS011;42226;42.382;23.748;2023-08-07T19:57:59;3.30;;;3.00;;
56319;SDS011;42226;42.382;23.748;2023-08-07T20:00:30;3.30;;;3.10;;
56319;SDS011;42226;42.382;23.748;2023-08-07T20:02:57;3.20;;;3.00;;
56319;SDS011;42226;42.382;23.748;2023-08-07T20:05:25;3.75;;;2.80;;
56319;SDS011;42226;42.382;23.748;2023-08-07T20:07:52;3.20;;;3.00;;
56319;SDS011;42226;42.382;23.748;2023-08-07T20:10:19;3.13;;;2.83;;
56319;SDS011;42226;42.382;23.748;2023-08-07T20:12:49;3.50;;;3.30;;
56319;SDS011;42226;42.382;23.748;2023-08-07T20:15:17;3.20;;;2.90;;
56319;SDS011;42226;42.382;23.748;2023-08-07T20:17:45;3.38;;;3.10;;
56319;SDS011;42226;42.382;23.748;2023-08-07T20:20:13;3.03;;;2.83;;
56319;SDS011;42226;42.382;23.748;2023-08-07T20:22:43;3.40;;;3.20;;
56319;SDS011;42226;42.382;23.748;2023-08-07T20:25:10;3.40;;;3.20;;
56319;SDS011;42226;42.382;23.748;2023-08-07T20:27:38;3.65;;;3.03;;
56319;SDS011;42226;42.382;23.748;2023-08-07T20:30:06;3.63;;;3.30;;
56319;SDS011;42226;42.382;23.748;2023-08-07T20:32:34;3.40;;;3.20;;
56319;SDS011;42226;42.382;23.748;2023-08-07T20:35:02;3.13;;;2.92;;
56319;SDS011;42226;42.382;23.748;2023-08-07T20:37:30;3.50;;;3.30;;
56319;SDS011;42226;42.382;23.748;2023-08-07T20:39:57;3.20;;;3.00;;
56319;SDS011;42226;42.382;23.748;2023-08-07T20:42:24;3.70;;;3.40;;
56319;SDS011;42226;42.382;23.748;2023-08-07T20:44:52;3.05;;;2.85;;
56319;SDS011;42226;42.382;23.748;2023-08-07T20:47:19;3.67;;;3.20;;
56319;SDS011;42226;42.382;23.748;2023-08-07T20:49:46;3.80;;;3.50;;
56319;SDS011;42226;42.382;23.748;2023-08-07T20:52:13;3.63;;;3.35;;
56319;SDS011;42226;42.382;23.748;2023-08-07T20:54:41;3.58;;;3.28;;
56319;SDS011;42226;42.382;23.748;2023-08-07T20:57:08;3.45;;;3.25;;
56319;SDS011;42226;42.382;23.748;2023-08-07T20:59:36;3.85;;;3.55;;
56319;SDS011;42226;42.382;23.748;2023-08-07T21:02:03;3.47;;;3.28;;
56319;SDS011;42226;42.382;23.748;2023-08-07T21:04:31;3.85;;;3.55;;
56319;SDS011;42226;42.382;23.748;2023-08-07T21:06:59;3.65;;;3.35;;
56319;SDS011;42226;42.382;23.748;2023-08-07T21:09:27;3.60;;;3.40;;
56319;SDS011;42226;42.382;23.748;2023-08-07T21:11:55;4.18;;;3.70;;
56319;SDS011;42226;42.382;23.748;2023-08-07T21:14:22;4.35;;;4.00;;
56319;SDS011;42226;42.382;23.748;2023-08-07T21:16:49;4.07;;;3.63;;
56319;SDS011;42226;42.382;23.748;2023-08-07T21:19:16;4.40;;;4.00;;
56319;SDS011;42226;42.382;23.748;2023-08-07T21:21:44;4.25;;;3.95;;
56319;SDS011;42226;42.382;23.748;2023-08-07T21:24:12;4.38;;;4.07;;
56319;SDS011;42226;42.382;23.748;2023-08-07T21:26:40;4.07;;;3.78;;
56319;SDS011;42226;42.382;23.748;2023-08-07T21:29:08;4.68;;;4.28;;
56319;SDS011;42226;42.382;23.748;2023-08-07T21:31:35;4.60;;;4.20;;
56319;SDS011;42226;42.382;23.748;2023-08-07T21:34:05;4.57;;;4.28;;
56319;SDS011;42226;42.382;23.748;2023-08-07T21:36:34;4.88;;;4.28;;
56319;SDS011;42226;42.382;23.748;2023-08-07T21:39:03;4.88;;;4.47;;
56319;SDS011;42226;42.382;23.748;2023-08-07T21:41:31;5.05;;;4.35;;
56319;SDS011;42226;42.382;23.748;2023-08-07T21:44:00;3.80;;;3.60;;
56319;SDS011;42226;42.382;23.748;2023-08-07T21:46:28;4.57;;;4.18;;
56319;SDS011;42226;42.382;23.748;2023-08-07T21:48:56;4.78;;;4.35;;
56319;SDS011;42226;42.382;23.748;2023-08-07T21:51:23;4.97;;;4.57;;
56319;SDS011;42226;42.382;23.748;2023-08-07T21:53:51;4.93;;;4.50;;
56319;SDS011;42226;42.382;23.748;2023-08-07T21:56:18;5.00;;;4.55;;
56319;SDS011;42226;42.382;23.748;2023-08-07T21:58:49;5.18;;;4.68;;
56319;SDS011;42226;42.382;23.748;2023-08-07T22:01:17;4.97;;;4.38;;
56319;SDS011;42226;42.382;23.748;2023-08-07T22:03:47;4.90;;;4.50;;
56319;SDS011;42226;42.382;23.748;2023-08-07T22:06:16;5.22;;;4.82;;
56319;SDS011;42226;42.382;23.748;2023-08-07T22:08:44;5.47;;;4.97;;
56319;SDS011;42226;42.382;23.748;2023-08-07T22:11:13;5.15;;;4.75;;
56319;SDS011;42226;42.382;23.748;2023-08-07T22:13:40;4.53;;;4.22;;
56319;SDS011;42226;42.382;23.748;2023-08-07T22:16:09;4.45;;;4.15;;
56319;SDS011;42226;42.382;23.748;2023-08-07T22:18:37;5.10;;;4.65;;
56319;SDS011;42226;42.382;23.748;2023-08-07T22:21:05;5.20;;;4.70;;
56319;SDS011;42226;42.382;23.748;2023-08-07T22:23:33;5.13;;;4.63;;
56319;SDS011;42226;42.382;23.748;2023-08-07T22:26:18;5.05;;;4.63;;
56319;SDS011;42226;42.382;23.748;2023-08-07T22:28:47;5.05;;;4.55;;
56319;SDS011;42226;42.382;23.748;2023-08-07T22:31:16;5.10;;;4.60;;
56319;SDS011;42226;42.382;23.748;2023-08-07T22:33:44;4.88;;;4.47;;
56319;SDS011;42226;42.382;23.748;2023-08-07T22:36:13;4.93;;;4.55;;
56319;SDS011;42226;42.382;23.748;2023-08-07T22:38:41;4.90;;;4.50;;
56319;SDS011;42226;42.382;23.748;2023-08-07T22:41:10;4.60;;;4.22;;
56319;SDS011;42226;42.382;23.748;2023-08-07T22:43:37;5.00;;;4.60;;
56319;SDS011;42226;42.382;23.748;2023-08-07T22:46:07;4.97;;;4.57;;
56319;SDS011;42226;42.382;23.748;2023-08-07T22:48:35;5.25;;;4.75;;
56319;SDS011;42226;42.382;23.748;2023-08-07T22:51:03;5.28;;;4.90;;